createdAt,value
2019-05-02T00:00:13.299Z,7.98
2019-05-02T00:03:04.468Z,7.96
2019-05-02T00:05:48.569Z,7.96
2019-05-02T00:08:36.915Z,7.89
2019-05-02T00:11:25.077Z,7.89
2019-05-02T00:14:12.714Z,7.89
2019-05-02T00:17:00.526Z,7.83
2019-05-02T00:19:49.827Z,7.79
2019-05-02T00:22:36.454Z,7.76
2019-05-02T00:25:23.990Z,7.76
2019-05-02T00:28:13.857Z,7.74
2019-05-02T00:30:59.807Z,7.76
2019-05-02T00:33:47.278Z,7.83
2019-05-02T00:36:35.230Z,7.84
2019-05-02T00:39:23.091Z,7.95
2019-05-02T00:42:12.897Z,7.95
2019-05-02T00:44:58.494Z,7.99
2019-05-02T00:47:53.378Z,7.96
2019-05-02T00:50:45.437Z,7.96
2019-05-02T00:53:29.016Z,7.93
2019-05-02T00:56:16.704Z,7.97
2019-05-02T00:59:07.489Z,8.02
2019-05-02T01:02:05.317Z,8.03
2019-05-02T01:04:49.011Z,8.03
2019-05-02T01:07:37.166Z,8.04
2019-05-02T01:10:24.702Z,8.07
2019-05-02T01:13:14.734Z,8.10
2019-05-02T01:16:00.153Z,8.07
2019-05-02T01:18:47.726Z,8.06
2019-05-02T01:21:38.873Z,8.05
2019-05-02T01:24:23.631Z,8.05
2019-05-02T01:27:30.594Z,8.10
2019-05-02T01:30:23.082Z,8.10
2019-05-02T01:33:29.760Z,8.16
2019-05-02T01:36:21.388Z,8.15
2019-05-02T01:39:11.662Z,8.06
2019-05-02T01:41:59.885Z,8.08
2019-05-02T01:44:47.116Z,8.08
2019-05-02T01:47:35.885Z,8.08
2019-05-02T01:50:22.220Z,8.02
2019-05-02T01:53:10.300Z,7.99
2019-05-02T01:55:59.389Z,7.94
2019-05-02T01:58:45.612Z,7.94
2019-05-02T02:01:33.768Z,7.96
2019-05-02T02:04:22.294Z,7.90
2019-05-02T02:07:10.026Z,7.85
2019-05-02T02:09:57.804Z,7.83
2019-05-02T02:13:02.779Z,7.83
2019-05-02T02:15:33.380Z,7.84
2019-05-02T02:18:22.084Z,7.79
2019-05-02T02:21:27.688Z,7.79
2019-05-02T02:24:34.134Z,7.79
2019-05-02T02:27:24.624Z,7.77
2019-05-02T02:30:09.183Z,7.78
2019-05-02T02:33:00.678Z,7.85
2019-05-02T02:35:50.487Z,7.69
2019-05-02T02:38:33.529Z,7.61
2019-05-02T02:41:19.764Z,7.54
2019-05-02T02:44:39.957Z,7.44
2019-05-02T02:47:23.768Z,7.42
2019-05-02T02:50:11.533Z,7.42
2019-05-02T02:52:59.727Z,7.40
2019-05-02T02:55:47.713Z,7.39
2019-05-02T02:58:44.093Z,7.32
2019-05-02T03:01:28.822Z,7.38
2019-05-02T03:04:12.211Z,7.40
2019-05-02T03:06:58.032Z,7.38
2019-05-02T03:09:45.515Z,7.39
2019-05-02T03:12:41.442Z,7.41
2019-05-02T03:15:28.091Z,7.42
2019-05-02T03:18:13.794Z,7.52
2019-05-02T03:21:01.539Z,7.48
2019-05-02T03:23:49.196Z,7.55
2019-05-02T03:26:37.383Z,7.59
2019-05-02T03:29:25.583Z,7.55
2019-05-02T03:32:26.057Z,7.49
2019-05-02T03:35:01.804Z,7.48
2019-05-02T03:37:51.453Z,7.47
2019-05-02T03:40:38.884Z,7.45
2019-05-02T03:43:25.898Z,7.45
2019-05-02T03:46:13.420Z,7.52
2019-05-02T03:49:07.099Z,7.52
2019-05-02T03:51:47.444Z,7.56
2019-05-02T03:54:34.954Z,7.56
2019-05-02T03:57:32.387Z,7.64
2019-05-02T04:00:13.687Z,7.57
2019-05-02T04:03:00.263Z,7.54
2019-05-02T04:05:45.850Z,7.54
2019-05-02T04:08:33.924Z,7.51
2019-05-02T04:11:24.936Z,7.54
2019-05-02T04:14:17.437Z,7.47
2019-05-02T04:17:00.224Z,7.44
2019-05-02T04:19:48.062Z,7.47
2019-05-02T04:22:36.281Z,7.53
2019-05-02T04:25:27.881Z,7.52
2019-05-02T04:28:14.364Z,7.49
2019-05-02T04:30:59.609Z,7.53
2019-05-02T04:33:49.964Z,7.56
2019-05-02T04:36:37.984Z,7.57
2019-05-02T04:39:28.460Z,7.59
2019-05-02T04:42:19.547Z,7.54
2019-05-02T04:45:21.436Z,7.57
2019-05-02T04:47:57.511Z,7.63
2019-05-02T04:50:37.909Z,7.61
2019-05-02T04:53:33.393Z,7.68
2019-05-02T04:56:12.350Z,7.69
2019-05-02T04:59:01.995Z,7.74
2019-05-02T05:01:56.611Z,7.71
2019-05-02T05:04:44.793Z,7.71
2019-05-02T05:07:31.160Z,7.77
2019-05-02T05:10:14.190Z,7.75
2019-05-02T05:13:01.996Z,7.76
2019-05-02T05:15:51.901Z,7.84
2019-05-02T05:18:37.930Z,7.90
2019-05-02T05:21:26.222Z,7.78
2019-05-02T05:24:32.934Z,7.78
2019-05-02T05:27:22.768Z,7.80
2019-05-02T05:30:11.267Z,7.80
2019-05-02T05:32:55.078Z,7.90
2019-05-02T05:35:48.731Z,7.90
2019-05-02T05:38:33.359Z,7.85
2019-05-02T05:41:22.893Z,7.90
2019-05-02T05:44:07.822Z,7.93
2019-05-02T05:46:54.538Z,7.96
2019-05-02T05:49:42.145Z,8.06
2019-05-02T05:52:33.065Z,8.07
2019-05-02T05:55:24.049Z,8.08
2019-05-02T05:58:15.091Z,8.15
2019-05-02T06:00:55.602Z,8.17
2019-05-02T06:03:44.846Z,8.17
2019-05-02T06:06:30.106Z,8.18
2019-05-02T06:09:17.692Z,8.25
2019-05-02T06:12:05.222Z,8.29
2019-05-02T06:14:56.261Z,8.29
2019-05-02T06:17:40.920Z,8.32
2019-05-02T06:20:30.590Z,8.33
2019-05-02T06:23:16.296Z,8.33
2019-05-02T06:26:07.974Z,8.37
2019-05-02T06:28:52.467Z,8.36
2019-05-02T06:31:43.162Z,8.42
2019-05-02T06:34:28.132Z,8.51
2019-05-02T06:37:15.747Z,8.74
2019-05-02T06:40:08.037Z,8.74
2019-05-02T06:42:51.735Z,8.80
2019-05-02T06:45:39.632Z,8.76
2019-05-02T06:48:27.367Z,8.74
2019-05-02T06:51:19.631Z,8.72
2019-05-02T06:54:03.342Z,9.07
2019-05-02T06:56:50.630Z,8.98
2019-05-02T06:59:38.245Z,8.96
2019-05-02T07:02:28.254Z,8.97
2019-05-02T07:05:13.767Z,8.84
2019-05-02T07:08:01.480Z,8.84
2019-05-02T07:10:49.643Z,8.92
2019-05-02T07:13:42.064Z,8.92
2019-05-02T07:16:38.457Z,8.87
2019-05-02T07:19:30.059Z,8.92
2019-05-02T07:22:17.419Z,8.92
2019-05-02T07:25:06.833Z,9.09
2019-05-02T07:27:53.698Z,9.09
2019-05-02T07:30:41.183Z,9.01
2019-05-02T07:33:32.385Z,9.01
2019-05-02T07:36:16.715Z,9.01
2019-05-02T07:39:07.103Z,9.00
2019-05-02T07:41:54.830Z,8.99
2019-05-02T07:44:42.718Z,9.09
2019-05-02T07:47:34.726Z,9.08
2019-05-02T07:50:18.082Z,9.11
2019-05-02T07:53:09.601Z,9.11
2019-05-02T07:55:53.881Z,9.06
2019-05-02T07:58:46.818Z,9.14
2019-05-02T08:01:29.677Z,9.14
2019-05-02T08:04:17.354Z,9.26
2019-05-02T08:07:05.038Z,9.26
2019-05-02T08:09:53.037Z,9.19
2019-05-02T08:12:41.326Z,9.28
2019-05-02T08:15:28.912Z,9.24
2019-05-02T08:18:16.610Z,9.28
2019-05-02T08:21:04.884Z,9.35
2019-05-02T08:23:52.678Z,9.44
2019-05-02T08:26:59.515Z,9.43
2019-05-02T08:29:45.404Z,9.51
2019-05-02T08:32:32.952Z,9.47
2019-05-02T08:35:21.496Z,9.41
2019-05-02T08:38:12.579Z,9.46
2019-05-02T08:40:57.135Z,9.52
2019-05-02T08:43:46.245Z,9.52
2019-05-02T08:46:33.470Z,9.46
2019-05-02T08:49:21.369Z,9.61
2019-05-02T08:52:08.924Z,9.63
2019-05-02T08:54:56.822Z,9.71
2019-05-02T08:57:44.478Z,9.77
2019-05-02T09:00:36.907Z,9.83
2019-05-02T09:03:19.869Z,9.82
2019-05-02T09:06:07.778Z,9.82
2019-05-02T09:08:55.815Z,9.77
2019-05-02T09:11:56.048Z,9.77
2019-05-02T09:14:32.274Z,9.82
2019-05-02T09:17:33.172Z,9.95
2019-05-02T09:20:15.490Z,9.95
2019-05-02T09:22:56.852Z,9.98
2019-05-02T09:25:44.676Z,9.98
2019-05-02T09:28:32.602Z,9.87
2019-05-02T09:31:22.628Z,9.98
2019-05-02T09:34:08.494Z,10.14
2019-05-02T09:36:56.755Z,10.25
2019-05-02T09:39:44.836Z,10.35
2019-05-02T09:42:32.855Z,10.39
2019-05-02T09:45:32.385Z,10.46
2019-05-02T09:48:17.204Z,10.41
2019-05-02T09:51:11.600Z,10.46
2019-05-02T09:53:52.469Z,10.60
2019-05-02T09:56:40.064Z,10.71
2019-05-02T09:59:33.132Z,10.82
2019-05-02T10:02:21.892Z,10.82
2019-05-02T10:05:07.480Z,10.85
2019-05-02T10:07:57.393Z,10.72
2019-05-02T10:10:45.895Z,10.76
2019-05-02T10:13:35.324Z,10.84
2019-05-02T10:16:27.173Z,10.96
2019-05-02T10:19:13.549Z,10.78
2019-05-02T10:21:58.867Z,10.72
2019-05-02T10:24:46.563Z,10.78
2019-05-02T10:27:38.530Z,10.90
2019-05-02T10:30:22.606Z,10.96
2019-05-02T10:33:13.027Z,11.06
2019-05-02T10:36:02.718Z,11.28
2019-05-02T10:38:54.689Z,11.36
2019-05-02T10:41:39.773Z,11.40
2019-05-02T10:44:27.158Z,11.65
2019-05-02T10:47:14.268Z,11.73
2019-05-02T10:50:07.025Z,11.81
2019-05-02T10:52:55.014Z,11.81
2019-05-02T10:55:43.147Z,11.88
2019-05-02T10:58:35.675Z,12.11
2019-05-02T11:01:19.257Z,12.31
2019-05-02T11:04:07.555Z,12.37
2019-05-02T11:06:56.830Z,12.61
2019-05-02T11:09:45.426Z,12.75
2019-05-02T11:12:44.458Z,12.68
2019-05-02T11:15:47.521Z,12.73
2019-05-02T11:18:52.283Z,12.72
2019-05-02T11:21:38.090Z,12.44
2019-05-02T11:24:25.569Z,12.34
2019-05-02T11:27:13.360Z,12.31
2019-05-02T11:30:02.744Z,12.60
2019-05-02T11:32:49.208Z,12.99
2019-05-02T11:35:37.027Z,13.07
2019-05-02T11:38:47.178Z,13.45
2019-05-02T11:41:13.672Z,13.51
2019-05-02T11:44:02.974Z,13.33
2019-05-02T11:46:49.273Z,13.41
2019-05-02T11:49:37.476Z,13.51
2019-05-02T11:52:27.547Z,13.57
2019-05-02T11:55:13.573Z,13.74
2019-05-02T11:58:07.914Z,14.01
2019-05-02T12:00:49.796Z,14.86
2019-05-02T12:03:43.009Z,16.18
2019-05-02T12:06:33.158Z,16.11
2019-05-02T12:09:22.226Z,16.81
2019-05-02T12:12:07.935Z,16.60
2019-05-02T12:14:56.008Z,17.27
2019-05-02T12:17:45.752Z,17.55
2019-05-02T12:20:33.947Z,17.56
2019-05-02T12:23:19.291Z,17.06
2019-05-02T12:26:07.543Z,16.06
2019-05-02T12:28:56.051Z,16.02
2019-05-02T12:31:47.307Z,15.56
2019-05-02T12:34:32.778Z,15.28
2019-05-02T12:37:21.938Z,14.96
2019-05-02T12:40:08.931Z,14.48
2019-05-02T12:42:56.719Z,14.44
2019-05-02T12:45:45.217Z,14.32
2019-05-02T12:48:33.010Z,14.21
2019-05-02T12:51:22.529Z,14.20
2019-05-02T12:54:08.138Z,14.22
2019-05-02T12:56:56.239Z,14.35
2019-05-02T12:59:44.280Z,14.41
2019-05-02T13:02:37.625Z,14.54
2019-05-02T13:05:25.455Z,14.62
2019-05-02T13:08:13.229Z,14.60
2019-05-02T13:11:22.663Z,14.40
2019-05-02T13:14:18.440Z,14.59
2019-05-02T13:17:01.216Z,14.59
2019-05-02T13:19:55.540Z,14.61
2019-05-02T13:22:47.903Z,14.59
2019-05-02T13:25:37.062Z,14.52
2019-05-02T13:28:25.643Z,14.45
2019-05-02T13:31:22.879Z,14.36
2019-05-02T13:34:15.086Z,14.41
2019-05-02T13:37:02.983Z,14.46
2019-05-02T13:40:12.027Z,14.44
2019-05-02T13:42:58.061Z,14.75
2019-05-02T13:46:08.304Z,15.06
2019-05-02T13:48:55.861Z,15.01
2019-05-02T13:51:43.703Z,14.66
2019-05-02T13:54:32.970Z,14.51
2019-05-02T13:57:19.439Z,14.32
2019-05-02T14:00:07.296Z,14.34
2019-05-02T14:02:55.545Z,14.28
2019-05-02T14:05:50.878Z,14.20
2019-05-02T14:08:40.359Z,14.20
2019-05-02T14:11:44.685Z,14.14
2019-05-02T14:14:32.668Z,14.07
2019-05-02T14:17:19.715Z,14.00
2019-05-02T14:20:10.886Z,13.95
2019-05-02T14:22:55.091Z,13.93
2019-05-02T14:25:43.499Z,13.78
2019-05-02T14:28:36.121Z,13.63
2019-05-02T14:31:19.452Z,13.44
2019-05-02T14:34:25.225Z,13.10
2019-05-02T14:37:12.976Z,13.01
2019-05-02T14:40:08.423Z,12.78
2019-05-02T14:42:57.804Z,12.65
2019-05-02T14:45:44.927Z,12.42
2019-05-02T14:48:41.022Z,12.36
2019-05-02T14:51:27.632Z,12.32
2019-05-02T14:54:12.052Z,12.38
2019-05-02T14:57:22.059Z,12.35
2019-05-02T15:00:05.384Z,12.28
2019-05-02T15:02:53.023Z,12.22
2019-05-02T15:05:42.451Z,12.17
2019-05-02T15:08:28.083Z,12.33
2019-05-02T15:11:15.795Z,12.34
2019-05-02T15:14:03.250Z,12.44
2019-05-02T15:16:55.228Z,12.48
2019-05-02T15:19:39.552Z,12.60
2019-05-02T15:22:27.701Z,12.75
2019-05-02T15:25:17.833Z,12.85
2019-05-02T15:28:02.622Z,12.85
2019-05-02T15:31:05.001Z,12.76
2019-05-02T15:34:01.598Z,12.73
2019-05-02T15:36:47.748Z,12.66
2019-05-02T15:42:25.604Z,12.48
2019-05-02T15:45:12.539Z,12.45
2019-05-02T15:48:02.525Z,12.50
2019-05-02T15:50:52.127Z,12.42
2019-05-02T15:53:49.683Z,12.42
2019-05-02T15:56:35.688Z,12.41
2019-05-02T15:59:42.033Z,12.35
2019-05-02T16:02:26.391Z,12.34
2019-05-02T16:05:11.884Z,12.28
2019-05-02T16:08:05.470Z,12.26
2019-05-02T16:10:46.724Z,12.24
2019-05-02T16:13:47.146Z,12.22
2019-05-02T16:16:32.049Z,12.18
2019-05-02T16:19:27.635Z,12.10
2019-05-02T16:22:11.632Z,12.19
2019-05-02T16:24:59.236Z,12.21
2019-05-02T16:27:47.849Z,12.14
2019-05-02T16:30:37.089Z,12.16
2019-05-02T16:33:23.730Z,12.17
2019-05-02T16:36:12.625Z,12.22
2019-05-02T16:38:59.483Z,12.29
2019-05-02T16:41:49.049Z,12.33
2019-05-02T16:44:36.055Z,12.23
2019-05-02T16:47:25.063Z,12.14
2019-05-02T16:50:13.238Z,12.09
2019-05-02T16:53:02.325Z,12.03
2019-05-02T16:55:48.495Z,11.95
2019-05-02T16:58:37.944Z,11.95
2019-05-02T17:01:27.167Z,11.88
2019-05-02T17:04:12.912Z,11.86
2019-05-02T17:07:02.175Z,11.86
2019-05-02T17:10:14.790Z,11.81
2019-05-02T17:13:00.191Z,11.82
2019-05-02T17:15:45.476Z,11.83
2019-05-02T17:18:33.542Z,11.83
2019-05-02T17:21:22.201Z,11.87
2019-05-02T17:24:09.992Z,11.93
2019-05-02T17:26:57.495Z,11.97
2019-05-02T17:29:45.115Z,11.96
2019-05-02T17:32:36.211Z,12.07
2019-05-02T17:35:22.130Z,12.05
2019-05-02T17:38:08.573Z,12.00
2019-05-02T17:40:59.127Z,11.95
2019-05-02T17:43:44.480Z,11.90
2019-05-02T17:46:32.678Z,11.85
2019-05-02T17:49:23.906Z,11.80
2019-05-02T17:52:36.675Z,11.78
2019-05-02T17:55:24.671Z,11.80
2019-05-02T17:58:14.637Z,11.70
2019-05-02T18:01:02.201Z,11.67
2019-05-02T18:03:48.594Z,11.65
2019-05-02T18:06:36.104Z,11.64
2019-05-02T18:09:26.289Z,11.60
2019-05-02T18:12:14.944Z,11.61
2019-05-02T18:15:01.416Z,11.53
2019-05-02T18:17:47.861Z,11.50
2019-05-02T18:20:37.091Z,11.54
2019-05-02T18:23:24.108Z,11.49
2019-05-02T18:26:11.445Z,11.47
2019-05-02T18:29:02.972Z,11.45
2019-05-02T18:31:47.610Z,11.42
2019-05-02T18:34:34.027Z,11.40
2019-05-02T18:37:21.967Z,11.40
2019-05-02T18:40:11.888Z,11.37
2019-05-02T18:43:01.994Z,11.33
2019-05-02T18:45:45.709Z,11.30
2019-05-02T18:48:36.540Z,11.28
2019-05-02T18:51:21.819Z,11.27
2019-05-02T18:54:08.547Z,11.28
2019-05-02T18:56:56.559Z,11.26
2019-05-02T18:59:44.653Z,11.15
2019-05-02T19:02:35.433Z,11.06
2019-05-02T19:05:22.877Z,10.85
2019-05-02T19:08:12.215Z,10.59
2019-05-02T19:11:08.529Z,10.40
2019-05-02T19:13:47.616Z,10.28
2019-05-02T19:16:35.051Z,10.18
2019-05-02T19:19:27.434Z,10.04
2019-05-02T19:22:16.941Z,9.97
2019-05-02T19:25:01.842Z,9.97
2019-05-02T19:27:59.837Z,9.82
2019-05-02T19:30:47.781Z,9.82
2019-05-02T19:33:37.509Z,9.79
2019-05-02T19:36:27.477Z,9.73
2019-05-02T19:39:10.730Z,9.73
2019-05-02T19:41:58.825Z,9.75
2019-05-02T19:44:46.697Z,9.75
2019-05-02T19:47:34.530Z,9.77
2019-05-02T19:50:43.093Z,9.74
2019-05-02T19:53:25.724Z,9.75
2019-05-02T19:56:13.293Z,9.75
2019-05-02T19:59:02.717Z,9.77
2019-05-02T20:01:49.189Z,9.76
2019-05-02T20:04:37.623Z,9.78
2019-05-02T20:07:25.035Z,9.78
2019-05-02T20:10:12.613Z,9.74
2019-05-02T20:13:03.083Z,9.74
2019-05-02T20:15:57.145Z,9.81
2019-05-02T20:18:44.007Z,9.80
2019-05-02T20:21:34.824Z,9.78
2019-05-02T20:24:22.940Z,9.81
2019-05-02T20:27:12.247Z,9.78
2019-05-02T20:29:58.445Z,9.75
2019-05-02T20:32:46.304Z,9.73
2019-05-02T20:35:33.594Z,9.74
2019-05-02T20:38:22.122Z,9.75
2019-05-02T20:41:10.076Z,9.56
2019-05-02T20:43:57.782Z,9.56
2019-05-02T20:46:45.696Z,9.57
2019-05-02T20:49:33.093Z,9.45
2019-05-02T20:52:21.832Z,9.37
2019-05-02T20:55:09.917Z,9.29
2019-05-02T20:57:58.922Z,9.17
2019-05-02T21:00:46.534Z,9.12
2019-05-02T21:03:34.090Z,9.05
2019-05-02T21:06:44.183Z,8.95
2019-05-02T21:09:41.881Z,8.89
2019-05-02T21:12:28.829Z,8.72
2019-05-02T21:15:18.262Z,8.72
2019-05-02T21:18:04.518Z,8.70
2019-05-02T21:20:52.696Z,8.59
2019-05-02T21:23:46.446Z,8.59
2019-05-02T21:26:28.108Z,8.48
2019-05-02T21:29:15.803Z,8.48
2019-05-02T21:32:03.619Z,8.40
2019-05-02T21:34:52.036Z,8.30
2019-05-02T21:37:42.553Z,8.20
2019-05-02T21:40:29.861Z,8.10
2019-05-02T21:43:18.174Z,8.01
2019-05-02T21:46:06.344Z,7.81
2019-05-02T21:48:53.947Z,7.81
2019-05-02T21:51:48.699Z,7.76
2019-05-02T21:54:44.892Z,7.76
2019-05-02T21:57:32.722Z,7.67
2019-05-02T22:00:42.036Z,7.62
2019-05-02T22:03:27.563Z,7.60
2019-05-02T22:06:15.554Z,7.56
2019-05-02T22:09:03.194Z,7.52
2019-05-02T22:11:52.102Z,6.73
2019-05-02T22:14:39.060Z,7.53
2019-05-02T22:17:27.408Z,7.51
2019-05-02T22:20:15.894Z,7.51
2019-05-02T22:23:03.829Z,7.44
2019-05-02T22:25:52.644Z,7.49
2019-05-02T22:28:39.603Z,7.47
2019-05-02T22:31:27.431Z,7.52
2019-05-02T22:34:15.475Z,7.54
2019-05-02T22:37:03.997Z,7.62
2019-05-02T22:39:57.444Z,7.61
2019-05-02T22:42:45.371Z,7.62
2019-05-02T22:45:33.473Z,7.64
2019-05-02T22:48:22.744Z,7.68
2019-05-02T22:51:08.769Z,7.72
2019-05-02T22:53:57.346Z,7.72
2019-05-02T22:56:45.419Z,7.75
2019-05-02T22:59:33.362Z,7.70
2019-05-02T23:02:21.995Z,7.77
2019-05-02T23:05:09.102Z,7.78
2019-05-02T23:07:57.331Z,7.77
2019-05-02T23:10:45.281Z,7.81
2019-05-02T23:13:33.144Z,7.84
2019-05-02T23:16:20.860Z,7.84
2019-05-02T23:19:08.804Z,7.82
2019-05-02T23:21:56.643Z,7.83
2019-05-02T23:25:11.659Z,7.85
2019-05-02T23:28:02.468Z,7.80
2019-05-02T23:30:51.875Z,7.76
2019-05-02T23:33:58.709Z,7.70
2019-05-02T23:36:44.048Z,7.66
2019-05-02T23:39:32.363Z,7.66
2019-05-02T23:42:21.724Z,7.68
2019-05-02T23:45:07.414Z,7.68
2019-05-02T23:47:55.166Z,7.64
2019-05-02T23:50:43.297Z,7.63
2019-05-02T23:53:31.540Z,7.66
2019-05-02T23:56:19.443Z,7.60
2019-05-02T23:59:06.882Z,6.68
